»·PEaware :: SWA327 KSJC-KBUR

SWA327 :: KSJC-KBUR

FLIGHT INFORMATION

Flight Status: Arrived
Operator:
Southwest Airlines
More flights by this operator :: More flights under this callsign
Pilot: Paul A. (20189)
Aircraft: BOEING 737-700
(B737)
More flights by this aircraft type
Origin: KSJC Mineta San Jose Intl
United States
Destination: KBUR Bob Hope-Burbank
United States
More flights between these airports :: More routes between these airports
Route: +TECKY3 EBAYE BURGL HONZK ROKKR2
File this flight plan on PilotEdge
Remarks:
Altitude:
(Current/Filed)
33,000ft
Speed:
(Current/Filed)
440kts
Departed: 28-Nov-18 09:08 AM
Arrived: 28-Nov-18 09:52 AM
Distance/Time
Traveled:
258nm/0:43
Distance/Time
To Go:
Arrived

Flight Plot

Page will automatically refresh every two minutes.

Flight plan parsing failed; only flown route is shown


Map Options




Map Legend


Flown Route
Filed Route
Departure Airport
Arrival Airport
Navaid (VOR, NDB)
Fix

Horizontal Profiles

Position Reports

Time Latitude Longitude Heading Altitude Ground
Speed
28-Nov-18 08:42 37.365058 -121.925414 48 69ft 0kts
28-Nov-18 08:43 37.365058 -121.925414 48 69ft 0kts
28-Nov-18 08:44 37.365058 -121.925414 48 69ft 0kts
28-Nov-18 08:45 37.365058 -121.925414 48 69ft 0kts
28-Nov-18 08:46 37.365058 -121.925414 48 69ft 0kts
28-Nov-18 08:47 37.365058 -121.925414 48 69ft 0kts
28-Nov-18 08:48 37.365058 -121.925414 48 69ft 0kts
28-Nov-18 08:49 37.365058 -121.925414 48 69ft 0kts
28-Nov-18 08:50 37.365058 -121.925414 48 69ft 0kts
28-Nov-18 08:51 37.365058 -121.925414 48 69ft 0kts
28-Nov-18 08:52 37.365058 -121.925414 48 69ft 0kts
28-Nov-18 08:53 37.365058 -121.925414 48 69ft 0kts
28-Nov-18 08:54 37.365058 -121.925414 48 69ft 0kts
28-Nov-18 08:55 37.365058 -121.925414 48 69ft 0kts
28-Nov-18 08:56 37.365058 -121.925414 48 69ft 0kts
28-Nov-18 08:57 37.365058 -121.925414 48 69ft 0kts
28-Nov-18 08:58 37.365058 -121.925414 48 69ft 0kts
28-Nov-18 08:59 37.365058 -121.925414 48 69ft 0kts
28-Nov-18 09:00 37.365058 -121.925414 48 69ft 0kts
28-Nov-18 09:01 37.365058 -121.925414 48 69ft 0kts
28-Nov-18 09:02 37.365041 -121.925438 48 69ft 1kts
28-Nov-18 09:03 37.364714 -121.926245 96 69ft 2kts
28-Nov-18 09:04 37.364763 -121.926485 113 69ft 0kts
28-Nov-18 09:05 37.364763 -121.926485 113 69ft 0kts
28-Nov-18 09:06 37.364763 -121.926485 113 69ft 0kts
28-Nov-18 09:07 37.362092 -121.923429 139 69ft 9kts
28-Nov-18 09:08 37.360009 -121.921170 138 69ft 4kts
28-Nov-18 09:09 37.356646 -121.917479 138 69ft 25kts
28-Nov-18 09:10 37.353017 -121.914579 225 69ft 0kts
28-Nov-18 09:11 37.359616 -121.923367 319 70ft 129kts
28-Nov-18 09:12 37.390954 -121.957576 317 2292ft 147kts
28-Nov-18 09:13 37.422288 -121.940072 92 4072ft 187kts
28-Nov-18 09:14 37.391954 -121.879874 133 6281ft 230kts
28-Nov-18 09:15 37.343339 -121.809797 133 8671ft 289kts
28-Nov-18 09:16 37.283658 -121.735350 141 11263ft 329kts
28-Nov-18 09:17 37.208025 -121.650724 142 13246ft 383kts
28-Nov-18 09:18 37.126661 -121.559109 144 16406ft 401kts
28-Nov-18 09:19 37.041316 -121.463999 148 18886ft 418kts
28-Nov-18 09:20 36.951622 -121.368866 148 20374ft 427kts
28-Nov-18 09:21 36.859017 -121.270651 148 22673ft 446kts
28-Nov-18 09:22 36.762784 -121.168109 148 24626ft 464kts
28-Nov-18 09:23 36.662082 -121.061859 149 26212ft 484kts
28-Nov-18 09:24 36.560450 -120.956422 151 27593ft 499kts
28-Nov-18 09:25 36.451260 -120.845919 151 28861ft 514kts
28-Nov-18 09:26 36.339168 -120.732722 151 30363ft 520kts
28-Nov-18 09:27 36.227028 -120.619254 151 31026ft 523kts
28-Nov-18 09:28 36.114958 -120.506560 151 31031ft 519kts
28-Nov-18 09:29 36.002787 -120.394059 152 31031ft 519kts
28-Nov-18 09:30 35.889977 -120.281724 152 31034ft 521kts
28-Nov-18 09:31 35.770825 -120.186325 160 31035ft 507kts
28-Nov-18 09:32 35.649383 -120.100172 169 31035ft 492kts
28-Nov-18 09:33 35.522426 -120.042186 173 31035ft 487kts
28-Nov-18 09:34 35.395332 -119.984961 172 31043ft 487kts
28-Nov-18 09:35 35.268200 -119.927403 172 30798ft 488kts
28-Nov-18 09:36 35.136729 -119.867014 166 28546ft 502kts
28-Nov-18 09:37 35.021166 -119.769585 147 27433ft 501kts
28-Nov-18 09:38 34.923423 -119.668054 148 25585ft 467kts
28-Nov-18 09:39 34.832450 -119.556121 133 23872ft 463kts
28-Nov-18 09:40 34.752629 -119.435537 134 21691ft 453kts
28-Nov-18 09:41 34.674834 -119.316824 133 18985ft 450kts
28-Nov-18 09:42 34.608386 -119.198531 124 16086ft 430kts
28-Nov-18 09:43 34.551630 -119.085702 131 14526ft 378kts
28-Nov-18 09:44 34.479138 -119.009212 149 13275ft 323kts
28-Nov-18 09:45 34.409890 -118.944019 146 11866ft 313kts
28-Nov-18 09:46 34.345390 -118.877686 141 9694ft 295kts
28-Nov-18 09:47 34.285035 -118.811007 139 7434ft 281kts
28-Nov-18 09:48 34.247358 -118.738216 114 6134ft 239kts
28-Nov-18 09:49 34.222923 -118.671059 114 4881ft 214kts
28-Nov-18 09:50 34.201280 -118.606725 98 3810ft 197kts
28-Nov-18 09:51 34.200299 -118.543973 91 3532ft 179kts
28-Nov-18 09:52 34.199550 -118.487248 91 2631ft 170kts
28-Nov-18 09:53 34.198809 -118.432745 91 1750ft 146kts
28-Nov-18 09:54 34.198276 -118.393151 90 1142ft 140kts
28-Nov-18 09:55 34.197654 -118.354359 122 728ft 9kts
28-Nov-18 09:56 34.197189 -118.351008 90 728ft 9kts

Navigation Log

Ident Type
Flight plan parsing failed, navigation log unavailable